ホムトヴォ空港(ユジノサハリンスク)の過去48時間の天気

ホムトヴォ空港(ユジノサハリンスク) (Yuzhno-Sakhalinsk)

現在時刻: 9/17 21:18 +10 (9/17 11:18 UTC) 以下の時間は現地時間です。

過去48時間のMETAR気象情報
時間 風向 風速(m/s) 視程 気温(℃) 湿度(%) 気圧(hPa) 天気現象
17 21:00 1 10km以上 6 93 1013
17 20:30 2 10km以上 7 87 1013
17 20:00 西北西 4 10km以上 11 76 1012
17 19:30 西北西 4 10km以上 11 71 1012
17 19:00 西北西 5 10km以上 12 67 1012
17 18:30 北西 4 10km以上 13 58 1011
17 18:00 北西 5 10km以上 14 51 1011
17 17:30 北北西 4 10km以上 15 48 1011
17 17:00 北西 5 10km以上 17 42 1010
17 16:30 北西 6 10km以上 17 42 1010
17 16:00 西北西 7 10km以上 18 42 1009
17 15:30 西北西 7 10km以上 18 39 1009
17 15:00 西北西 7 10km以上 18 39 1009
17 14:30 西北西 6 10km以上 19 37 1009
17 14:00 西北西 7 10km以上 19 37 1008
17 13:30 北西 5 10km以上 20 40 1008
17 13:00 北西 6 10km以上 20 37 1008
17 12:30 西北西 6 10km以上 19 40 1008
17 11:30 西北西 2 10km以上 19 60 1008
17 11:00 3 10km以上 18 60 1009
17 10:30 4 10km以上 18 60 1009
17 10:00 4 10km以上 17 63 1009
17 09:30 5 10km以上 16 72 1009
17 09:00 4 10km以上 15 88 1009
17 08:30 北北西 3 10km以上 13 100 1009
17 08:00 北北西 3 10km以上 12 94 1008
17 07:30 4 10km以上 10 100 1008
17 07:00 4 10km以上 9 100 1008
17 06:30 3 7000m 8 100 1008
17 06:00 3 1100m 9 100 1008
17 05:30 北北西 4 350m 10 100 1008
17 05:00 4 500m 10 100 1007
17 04:00 北北西 4 300m 11 100 1007
17 03:00 5 400m 12 94 1007
17 02:00 4 400m 12 94 1007
17 01:00 3 200m 12 94 1007
17 00:00 5 2600m 11 100 1007
16 23:00 北北西 4 10km以上 11 100 1008
16 22:00 2 10km以上 13 94 1008
16 21:30 1 10km以上 14 94 1008
16 21:00 北北西 1 10km以上 15 88 1008
16 20:30 北西 1 10km以上 15 88 1008
16 20:00 北東 2 10km以上 15 88 1008
16 19:30 静穏 0 10km以上 15 94 1008
16 19:00 北西 1 10km以上 16 82 1008
16 18:30 南南西 1 10km以上 16 82 1008
16 18:00 2 10km以上 17 77 1008
16 17:30 2 10km以上 16 82 1008
16 17:00 南南西 2 10km以上 17 83 1008
16 16:30 西南西 2 10km以上 17 83 1009
16 16:00 西南西 2 10km以上 17 77 1009
16 15:30 西 2 10km以上 17 83 1009
16 15:00 西南西 3 10km以上 18 77 1009
16 14:30 西南西 3 10km以上 18 77 1009
16 14:00 南南西 2 10km以上 18 73 1009
16 13:30 南南西 4 10km以上 18 73 1009
16 13:00 南南東 3 10km以上 18 73 1010
16 12:30 南南東 3 10km以上 18 73 1011
16 12:00 南南東 3 10km以上 18 73 1011
16 11:30 4 10km以上 18 73 1011
16 11:00 南東 3 10km以上 17 77 1011
16 10:30 南東 4 10km以上 17 77 1012
16 10:00 南東 4 10km以上 16 88 1012
16 09:30 南南東 4 10km以上 15 94 1012
16 09:00 2 10km以上 14 100 1013
16 08:30 静穏 0 10km以上 13 100 1012
16 08:00 静穏 0 8000m 12 100 1012
16 07:30 北北東 1 9000m 11 100 1013
16 07:00 3 10km以上 11 94 1013
16 06:30 北北東 2 7000m 10 100 1013 もや
16 06:00 2 3400m 9 100 1013
16 05:30 2 10km以上 9 100 1013
16 05:00 東北東 1 10km以上 9 100 1013
16 04:00 北東 1 10km以上 9 93 1014
16 03:00 東北東 2 10km以上 10 94 1013
16 02:00 2 10km以上 10 94 1014
16 01:00 2 10km以上 8 93 1014
16 00:00 北北東 1 10km以上 8 100 1014 もや
15 23:00 東北東 2 10km以上 9 100 1014 もや
15 22:00 静穏 0 10km以上 11 100 1014
15 21:30 静穏 0 10km以上 10 100 1014
UHSS 171100Z 01001MPS 9999 NSC 06/05 Q1013 R01/70D NOSIG RMK QFE758/1011
UHSS 171030Z 09002MPS 020V140 9999 NSC 07/05 Q1013 R01/70D NOSIG RMK QFE758/1011
UHSS 171000Z 30004MPS 9999 NSC 11/07 Q1012 R01/70D NOSIG RMK QFE758/1011
UHSS 170930Z 30004MPS 9999 NSC 11/06 Q1012 R01/70D NOSIG RMK QFE758/1010
UHSS 170900Z 30005MPS 9999 NSC 12/06 Q1012 R01/70D NOSIG RMK QFE757/1010
UHSS 170830Z 31004MPS 9999 NSC 13/05 Q1011 R01/70D NOSIG RMK QFE757/1010
UHSS 170800Z 31005MPS 9999 NSC 14/04 Q1011 R01/70D NOSIG RMK QFE757/1009
UHSS 170730Z 33004MPS 9999 NSC 15/04 Q1011 R01/70D NOSIG RMK QFE757/1009
UHSS 170700Z 31005MPS 9999 NSC 17/04 Q1010 R01/70D NOSIG RMK QFE756/1009
UHSS 170630Z 31006MPS 9999 NSC 17/04 Q1010 R01/70D NOSIG RMK QFE756/1008
UHSS 170600Z 30007MPS 9999 NSC 18/05 Q1009 R01/70D NOSIG RMK QFE756/1008
UHSS 170530Z 29007MPS 9999 NSC 18/04 Q1009 R01/70D NOSIG RMK QFE755/1007
UHSS 170500Z 30007MPS 9999 NSC 18/04 Q1009 R01/70D NOSIG RMK QFE755/1007
UHSS 170430Z 30006MPS 9999 NSC 19/04 Q1009 R01/70D NOSIG RMK QFE755/1007
UHSS 170400Z 29007MPS 9999 NSC 19/04 Q1008 R01/70D NOSIG RMK QFE755/1007
UHSS 170330Z 32005MPS 9999 NSC 20/06 Q1008 R01/70D NOSIG RMK QFE755/1007
UHSS 170300Z 31006MPS 9999 FEW040 20/05 Q1008 R01/70D NOSIG RMK QFE755/1007
UHSS 170230Z 30006MPS 9999 FEW040 19/05 Q1008 R01/70D NOSIG RMK QFE755/1007
UHSS 170130Z 30002MPS 250V340 9999 FEW040 19/11 Q1008 R01/CLRD70 NOSIG RMK QFE755/1007
UHSS 170100Z 35003MPS 310V040 9999 FEW040 18/10 Q1009 R01/70D NOSIG RMK QFE755/1007
UHSS 170030Z 01004MPS 9999 FEW040 18/10 Q1009 R01/70D NOSIG RMK QFE755/1007
UHSS 170000Z 36004MPS 330V040 9999 FEW040 17/10 Q1009 R01/70D NOSIG RMK QFE755/1007
UHSS 162330Z 36005MPS 9999 NSC 16/11 Q1009 R01/70D NOSIG RMK QFE755/1007
UHSS 162300Z 35004MPS 9999 NSC 15/13 Q1009 R01/70D NOSIG RMK QFE755/1007
UHSS 162230Z 33003MPS 9999 NSC 13/13 Q1009 R01/70D NOSIG RMK QFE755/1007
UHSS 162200Z 33003MPS 9999 NSC 12/11 Q1008 R01/70D NOSIG RMK QFE755/1007
UHSS 162130Z 35004MPS 9999 NSC 10/10 Q1008 R01/70D NOSIG RMK QFE755/1007
UHSS 162100Z 36004MPS 9999 FEW003 09/09 Q1008 R01/70D NOSIG RMK QBB100 MT OBSC QFE755/1007
UHSS 162030Z 35003MPS 7000 SCT002 08/08 Q1008 R01/70D NOSIG RMK QBB060 MT OBSC QFE755/1006
UHSS 162000Z 35003MPS 1100 0900E FG BKN002 09/09 Q1008 R01/70D NOSIG RMK QBB060 MT OBSC QFE754/1006
UHSS 161930Z 34004MPS 0350 0250N R01/1300U FG VV002 10/10 Q1008 R01/CLRD70 NOSIG RMK QBB060 MT OBSC QFE754/1006
UHSS 161900Z 35004MPS 0500 0300N R01/1200N FG VV002 10/10 Q1007 R01/CLRD70 NOSIG RMK QBB060 MT OBSC QFE754/1006
UHSS 161800Z 34004MPS 0300 0200N R01/0750N FG VV002 11/11 Q1007 R01/CLRD70 NOSIG RMK QBB060 MT OBSC QFE754/1006
UHSS 161700Z 35005MPS 0400 0300N R01/0900N FG VV002 12/11 Q1007 R01/CLRD70 NOSIG RMK QBB060 MT OBSC QFE754/1006
UHSS 161600Z 36004MPS 0400 0300N R01/0900N FG VV002 12/11 Q1007 R01/CLRD70 NOSIG RMK QBB060 MT OBSC QFE754/1006
UHSS 161500Z 36003MPS 0200 R01/0550D FG VV002 12/11 Q1007 R01/CLRD70 NOSIG RMK QBB060 MT OBSC QFE754/1006
UHSS 161400Z 35005MPS 2600 0650N FG OVC002 11/11 Q1007 R01/70D NOSIG RMK QBB070 MT OBSC QFE754/1006
UHSS 161300Z 34004MPS 9999 FEW020 11/11 Q1008 R01/70D NOSIG RMK MT OBSC QFE754/1006
UHSS 161200Z 35002MPS 9999 SCT020 13/12 Q1008 R01/70D NOSIG RMK MT OBSC QFE754/1006
UHSS 161130Z 36001MPS 9999 SCT020 14/13 Q1008 R01/70D NOSIG RMK MT OBSC QFE754/1006
UHSS 161100Z 34001MPS 9999 SCT019 15/13 Q1008 R01/70D NOSIG RMK MT OBSC QFE755/1006
UHSS 161030Z 32001MPS 9999 BKN023 15/13 Q1008 R19/70D NOSIG RMK MT OBSC QFE755/1006
UHSS 161000Z 05002MPS 9999 BKN023 15/13 Q1008 R19/70D NOSIG RMK MT OBSC QFE755/1006
UHSS 160930Z 00000MPS 9999 BKN021 15/14 Q1008 R01/70D NOSIG RMK MT OBSC QFE755/1006
UHSS 160900Z 32001MPS 9999 BKN020 16/13 Q1008 R01/70D NOSIG RMK MT OBSC QFE755/1007
UHSS 160830Z 20001MPS 9999 SCT020 16/13 Q1008 R01/70D NOSIG RMK MT OBSC QFE755/1006
UHSS 160800Z 19002MPS 150V220 9999 FEW040 17/13 Q1008 R01/70D NOSIG RMK QFE755/1006
UHSS 160730Z 17002MPS 9999 NSC 16/13 Q1008 R01/70D NOSIG RMK QFE755/1006
UHSS 160700Z 21002MPS 9999 BKN023 17/14 Q1008 R01/70D NOSIG RMK MT OBSC QFE755/1007
UHSS 160630Z 24002MPS 9999 BKN024 17/14 Q1009 R19/70D NOSIG RMK MT OBSC QFE755/1007
UHSS 160600Z 24002MPS 9999 BKN026 17/13 Q1009 R19/70D NOSIG RMK MT OBSC QFE755/1007
UHSS 160530Z 26002MPS 9999 BKN027 17/14 Q1009 R19/70D NOSIG RMK MT OBSC QFE755/1007
UHSS 160500Z 25003MPS 9999 BKN029 18/14 Q1009 R19/70D NOSIG RMK MT OBSC QFE755/1007
UHSS 160430Z 24003MPS 9999 BKN027 18/14 Q1009 R19/70D NOSIG RMK MT OBSC QFE755/1007
UHSS 160400Z 21002MPS 9999 BKN028 18/13 Q1009 R19/70D NOSIG RMK MT OBSC QFE755/1007
UHSS 160330Z 21004MPS 9999 SCT023 18/13 Q1009 R19/70D NOSIG RMK MT OBSC QFE756/1008
UHSS 160300Z 16003MPS 130V220 9999 BKN024 18/13 Q1010 R19/70D NOSIG RMK MT OBSC QFE756/1008
UHSS 160230Z 16003MPS 120V260 9999 SCT028 18/13 Q1011 R19/70D NOSIG RMK MT OBSC QFE756/1009
UHSS 160200Z 16003MPS 130V210 9999 BKN023 18/13 Q1011 R19/CLRD70 NOSIG RMK MT OBSC QFE757/1009
UHSS 160130Z 17004MPS 9999 BKN023 18/13 Q1011 R19/70D NOSIG RMK MT OBSC QFE757/1009
UHSS 160100Z 14003MPS 9999 SCT022 17/13 Q1011 R19/70D NOSIG RMK MT OBSC QFE757/1010
UHSS 160030Z 13004MPS 9999 SCT020 17/13 Q1012 R19/70D NOSIG RMK MT OBSC QFE757/1010
UHSS 160000Z 14004MPS 9999 FEW020 16/14 Q1012 R19/70D NOSIG RMK MT OBSC QFE758/1010
UHSS 152330Z 15004MPS 9999 BKN020 15/14 Q1012 R19/70D NOSIG RMK MT OBSC QFE758/1011
UHSS 152300Z 19002MPS 9999 BKN020 14/14 Q1013 R01/70D NOSIG RMK MT OBSC QFE758/1011
UHSS 152230Z 00000MPS 9999 SCT013 13/13 Q1012 R01/70D NOSIG RMK MT OBSC QFE758/1011
UHSS 152200Z 00000MPS 8000 SCT013 12/12 Q1012 R01/70D NOSIG RMK MT OBSC QFE758/1011
UHSS 152130Z 02001MPS 9000 SCT013 11/11 Q1013 R01/70D NOSIG RMK MT OBSC QFE758/1011
UHSS 152100Z 36003MPS 9999 BKN014 11/10 Q1013 R01/70D NOSIG RMK MT OBSC QFE758/1011
UHSS 152030Z 03002MPS 7000 1500S R01/1500U BR BKN010 10/10 Q1013 R01/CLRD70 NOSIG RMK MT OBSC QFE758/1011
UHSS 152000Z 36002MPS 3400 0900N FG SCT011 09/09 Q1013 R01/70D NOSIG RMK MT OBSC QFE759/1012
UHSS 151930Z 36002MPS 9999 BKN016 09/09 Q1013 R01/70D NOSIG RMK MT OBSC QFE759/1012
UHSS 151900Z 07001MPS 9999 BKN012 09/09 Q1013 R01/70D NOSIG RMK MT OBSC QFE759/1012
UHSS 151800Z 05001MPS 9999 BKN010 09/08 Q1014 R01/70D NOSIG RMK MT OBSC QFE759/1012
UHSS 151700Z 06002MPS 9999 SCT009 10/09 Q1013 R01/70D NOSIG RMK MT OBSC QFE759/1012
UHSS 151600Z 01002MPS 9999 BKN010 10/09 Q1014 R01/70D NOSIG RMK MT OBSC QFE759/1012
UHSS 151500Z 08002MPS 9999 SCT020 08/07 Q1014 R01/70D NOSIG RMK MT OBSC QFE759/1012
UHSS 151400Z 03001MPS 9999 4400N BR FEW040 08/08 Q1014 R01/70D NOSIG RMK QFE759/1013
UHSS 151300Z 07002MPS 9999 4400N BR FEW040 09/09 Q1014 R01/70D NOSIG RMK QFE759/1012
UHSS 151200Z 00000MPS 9999 FEW040 11/11 Q1014 R01/70D NOSIG RMK QFE759/1013
UHSS 151130Z 00000MPS 9999 FEW040 10/10 Q1014 R01/70D NOSIG RMK QFE759/1013